createdAt,value
2023-04-27T00:01:15.537Z,9.35
2023-04-27T00:03:43.474Z,8.88
2023-04-27T00:06:11.071Z,9.40
2023-04-27T00:08:38.707Z,8.90
2023-04-27T00:11:06.663Z,9.20
2023-04-27T00:13:34.007Z,9.20
2023-04-27T00:16:03.874Z,10.30
2023-04-27T00:18:32.185Z,8.75
2023-04-27T00:20:59.624Z,9.48
2023-04-27T00:23:28.021Z,8.63
2023-04-27T00:25:56.782Z,9.25
2023-04-27T00:28:26.923Z,9.43
2023-04-27T00:30:56.760Z,8.80
2023-04-27T00:33:26.104Z,9.23
2023-04-27T00:36:19.270Z,9.57
2023-04-27T00:38:48.813Z,8.80
2023-04-27T00:41:24.209Z,9.10
2023-04-27T00:44:00.951Z,9.50
2023-04-27T00:46:31.558Z,8.82
2023-04-27T00:49:12.752Z,8.75
2023-04-27T00:51:48.789Z,8.70
2023-04-27T00:54:35.578Z,8.93
2023-04-27T00:57:08.173Z,8.90
2023-04-27T00:59:39.609Z,9.02
2023-04-27T01:02:08.741Z,8.88
2023-04-27T01:04:42.672Z,8.68
2023-04-27T01:07:11.415Z,8.52
2023-04-27T01:09:39.004Z,9.02
2023-04-27T01:12:06.693Z,8.23
2023-04-27T01:14:34.006Z,9.20
2023-04-27T01:17:01.420Z,8.75
2023-04-27T01:19:29.233Z,8.68
2023-04-27T01:21:56.535Z,9.07
2023-04-27T01:24:23.984Z,8.85
2023-04-27T01:26:53.833Z,8.77
2023-04-27T01:29:21.547Z,8.65
2023-04-27T01:31:48.904Z,8.35
2023-04-27T01:34:16.315Z,8.50
2023-04-27T01:36:44.180Z,8.90
2023-04-27T01:44:35.348Z,8.27
2023-04-27T01:47:04.736Z,8.35
2023-04-27T01:49:32.065Z,8.65
2023-04-27T01:51:59.393Z,8.45
2023-04-27T01:54:28.699Z,8.80
2023-04-27T01:56:56.232Z,8.23
2023-04-27T01:59:23.640Z,8.75
2023-04-27T02:01:50.993Z,8.68
2023-04-27T02:04:18.564Z,8.52
2023-04-27T02:06:46.048Z,9.35
2023-04-27T02:09:13.821Z,7.93
2023-04-27T02:11:41.451Z,8.70
2023-04-27T02:14:09.042Z,8.50
2023-04-27T02:16:36.635Z,8.65
2023-04-27T02:19:04.420Z,8.60
2023-04-27T02:21:32.733Z,8.00
2023-04-27T02:24:00.160Z,8.80
2023-04-27T02:26:29.340Z,8.60
2023-04-27T02:28:57.214Z,8.50
2023-04-27T02:31:25.159Z,8.73
2023-04-27T02:33:52.736Z,8.88
2023-04-27T02:36:20.063Z,9.02
2023-04-27T02:38:47.407Z,9.52
2023-04-27T02:41:14.938Z,9.23
2023-04-27T02:43:42.236Z,8.82
2023-04-27T02:46:09.665Z,9.18
2023-04-27T02:48:37.039Z,9.32
2023-04-27T02:51:05.323Z,9.82
2023-04-27T02:53:32.604Z,10.13
2023-04-27T02:56:00.016Z,9.68
2023-04-27T02:58:27.312Z,10.43
2023-04-27T03:00:57.970Z,9.82
2023-04-27T03:03:25.938Z,9.63
2023-04-27T03:05:53.356Z,9.75
2023-04-27T03:08:20.780Z,10.27
2023-04-27T03:10:48.174Z,9.50
2023-04-27T03:13:15.964Z,9.77
2023-04-27T03:15:43.326Z,9.30
2023-04-27T03:18:11.328Z,10.48
2023-04-27T03:20:38.744Z,9.73
2023-04-27T03:23:06.989Z,9.93
2023-04-27T03:25:34.389Z,10.85
2023-04-27T03:28:01.746Z,9.85
2023-04-27T03:30:29.200Z,10.77
2023-04-27T03:32:57.158Z,9.88
2023-04-27T03:35:24.587Z,9.60
2023-04-27T03:37:52.073Z,10.05
2023-04-27T03:40:19.477Z,9.25
2023-04-27T03:42:46.866Z,10.48
2023-04-27T03:45:16.303Z,10.55
2023-04-27T03:47:43.615Z,10.05
2023-04-27T03:50:11.265Z,9.13
2023-04-27T03:52:38.620Z,11.07
2023-04-27T03:55:07.142Z,10.10
2023-04-27T03:57:34.500Z,10.10
2023-04-27T04:00:01.861Z,9.30
2023-04-27T04:02:29.431Z,9.38
2023-04-27T04:04:57.034Z,9.48
2023-04-27T04:07:24.527Z,9.27
2023-04-27T04:09:51.903Z,8.70
2023-04-27T04:12:19.211Z,8.88
2023-04-27T04:14:49.135Z,8.65
2023-04-27T04:17:16.908Z,9.55
2023-04-27T04:19:44.233Z,8.55
2023-04-27T04:22:12.030Z,8.85
2023-04-27T04:24:40.236Z,9.15
2023-04-27T04:27:07.666Z,8.52
2023-04-27T04:29:35.013Z,8.95
2023-04-27T04:32:02.458Z,9.15
2023-04-27T04:34:29.856Z,9.88
2023-04-27T04:36:57.846Z,9.95
2023-04-27T04:39:25.151Z,9.35
2023-04-27T04:41:52.539Z,9.40
2023-04-27T04:44:20.831Z,9.48
2023-04-27T04:46:48.643Z,9.15
2023-04-27T04:49:16.493Z,9.60
2023-04-27T04:51:44.966Z,10.02
2023-04-27T04:54:12.505Z,9.77
2023-04-27T04:56:40.079Z,10.18
2023-04-27T04:59:07.417Z,10.00
2023-04-27T05:01:34.836Z,9.07
2023-04-27T05:04:02.427Z,9.63
2023-04-27T05:06:29.894Z,9.65
2023-04-27T05:08:57.317Z,9.40
2023-04-27T05:11:24.724Z,9.43
2023-04-27T05:13:52.033Z,9.15
2023-04-27T05:16:19.564Z,9.60
2023-04-27T05:18:46.941Z,8.80
2023-04-27T05:21:15.934Z,8.70
2023-04-27T05:23:43.543Z,8.88
2023-04-27T05:26:18.178Z,8.88
2023-04-27T05:28:47.111Z,9.35
2023-04-27T05:31:14.558Z,8.70
2023-04-27T05:33:41.973Z,9.23
2023-04-27T05:36:09.441Z,9.45
2023-04-27T05:38:40.142Z,9.27
2023-04-27T05:41:07.909Z,9.10
2023-04-27T05:43:35.618Z,9.15
2023-04-27T05:46:03.110Z,9.02
2023-04-27T05:48:30.654Z,8.68
2023-04-27T05:51:02.130Z,8.02
2023-04-27T05:53:30.785Z,7.35
2023-04-27T05:55:59.349Z,7.35
2023-04-27T05:58:27.003Z,7.03
2023-04-27T06:00:55.059Z,6.72
2023-04-27T06:03:22.743Z,7.43
2023-04-27T06:05:58.632Z,7.57
2023-04-27T06:08:30.033Z,7.45
2023-04-27T06:10:57.761Z,7.80
2023-04-27T06:13:25.364Z,6.20
2023-04-27T06:15:52.853Z,5.53
2023-04-27T06:18:22.274Z,5.55
2023-04-27T06:20:59.151Z,5.40
2023-04-27T06:23:26.478Z,4.72
2023-04-27T06:25:56.278Z,5.05
2023-04-27T06:28:23.787Z,4.45
2023-04-27T06:30:51.143Z,4.30
2023-04-27T06:33:18.476Z,4.90
2023-04-27T06:35:47.340Z,4.60
2023-04-27T06:38:15.053Z,4.00
2023-04-27T06:40:42.472Z,3.75
2023-04-27T06:43:09.881Z,3.65
2023-04-27T06:45:37.153Z,3.67
2023-04-27T06:48:05.798Z,4.43
2023-04-27T06:50:33.241Z,3.90
2023-04-27T06:53:00.817Z,3.92
2023-04-27T06:55:28.268Z,3.72
2023-04-27T06:57:55.751Z,4.07
2023-04-27T07:00:23.147Z,3.70
2023-04-27T07:02:50.742Z,3.97
2023-04-27T07:05:18.595Z,3.80
2023-04-27T07:07:46.113Z,3.85
2023-04-27T07:10:13.516Z,4.00
2023-04-27T07:12:42.329Z,3.78
2023-04-27T07:15:10.991Z,4.40
2023-04-27T07:17:38.436Z,3.70
2023-04-27T07:20:07.186Z,4.05
2023-04-27T07:22:34.628Z,3.80
2023-04-27T07:25:02.164Z,4.25
2023-04-27T07:27:29.500Z,4.10
2023-04-27T07:29:56.853Z,4.60
2023-04-27T07:32:24.428Z,4.00
2023-04-27T07:34:54.393Z,4.57
2023-04-27T07:37:23.057Z,4.68
2023-04-27T07:39:53.035Z,4.80
2023-04-27T07:42:22.602Z,5.18
2023-04-27T07:44:50.409Z,4.53
2023-04-27T07:47:18.722Z,4.72
2023-04-27T07:49:47.158Z,4.95
2023-04-27T07:52:14.834Z,6.00
2023-04-27T07:54:42.477Z,5.25
2023-04-27T07:57:13.857Z,5.15
2023-04-27T07:59:41.398Z,4.95
2023-04-27T08:02:18.995Z,4.75
2023-04-27T08:04:48.137Z,4.70
2023-04-27T08:07:19.849Z,4.38
2023-04-27T08:09:47.299Z,4.32
2023-04-27T08:12:16.153Z,4.85
2023-04-27T08:14:43.534Z,4.78
2023-04-27T08:17:11.453Z,5.13
2023-04-27T08:19:39.057Z,4.47
2023-04-27T08:22:06.408Z,4.57
2023-04-27T08:24:33.905Z,4.57
2023-04-27T08:27:01.337Z,4.85
2023-04-27T08:29:29.418Z,4.60
2023-04-27T08:32:00.048Z,4.28
2023-04-27T08:34:28.123Z,4.50
2023-04-27T08:36:56.560Z,4.63
2023-04-27T08:39:24.915Z,4.32
2023-04-27T08:41:52.534Z,4.40
2023-04-27T08:44:19.998Z,4.00
2023-04-27T08:46:47.498Z,4.78
2023-04-27T08:49:16.800Z,4.43
2023-04-27T08:51:45.051Z,4.63
2023-04-27T08:54:12.553Z,4.53
2023-04-27T08:56:39.974Z,4.50
2023-04-27T08:59:15.178Z,4.32
2023-04-27T09:01:48.440Z,4.20
2023-04-27T09:04:18.108Z,4.53
2023-04-27T09:06:46.418Z,4.45
2023-04-27T09:09:23.749Z,5.07
2023-04-27T09:11:51.782Z,4.47
2023-04-27T09:14:23.892Z,4.80
2023-04-27T09:16:59.584Z,4.78
2023-04-27T09:19:32.178Z,4.55
2023-04-27T09:22:05.450Z,4.43
2023-04-27T09:24:33.143Z,4.95
2023-04-27T09:27:01.769Z,4.60
2023-04-27T09:29:39.201Z,4.40
2023-04-27T09:32:20.735Z,4.90
2023-04-27T09:34:51.127Z,4.43
2023-04-27T09:37:18.954Z,4.32
2023-04-27T09:39:46.658Z,5.07
2023-04-27T09:42:16.009Z,4.20
2023-04-27T09:44:43.722Z,3.90
2023-04-27T09:47:11.854Z,4.70
2023-04-27T09:49:39.379Z,4.38
2023-04-27T09:52:06.898Z,3.92
2023-04-27T09:54:35.262Z,4.05
2023-04-27T09:57:19.219Z,4.60
2023-04-27T10:00:11.155Z,4.50
2023-04-27T10:02:55.808Z,4.78
2023-04-27T10:05:37.926Z,4.38
2023-04-27T10:08:06.279Z,5.50
2023-04-27T10:10:49.597Z,4.75
2023-04-27T10:13:24.718Z,4.57
2023-04-27T10:15:52.480Z,4.32
2023-04-27T10:18:31.099Z,4.97
2023-04-27T10:21:10.764Z,4.97
2023-04-27T10:23:48.402Z,4.65
2023-04-27T10:26:26.719Z,4.70
2023-04-27T10:29:20.855Z,4.63
2023-04-27T10:31:48.996Z,4.25
2023-04-27T10:34:21.666Z,4.93
2023-04-27T10:36:49.161Z,4.40
2023-04-27T10:39:29.837Z,4.60
2023-04-27T10:42:03.118Z,4.72
2023-04-27T10:44:35.074Z,4.78
2023-04-27T10:47:24.019Z,4.07
2023-04-27T10:49:56.975Z,5.30
2023-04-27T10:54:54.251Z,5.20
2023-04-27T10:57:21.599Z,5.18
2023-04-27T10:59:52.562Z,5.50
2023-04-27T11:02:27.212Z,4.95
2023-04-27T11:04:56.322Z,5.25
2023-04-27T11:07:30.942Z,4.50
2023-04-27T11:09:58.435Z,5.50
2023-04-27T11:12:26.168Z,5.55
2023-04-27T11:14:58.744Z,5.50
2023-04-27T11:17:33.248Z,5.20
2023-04-27T11:20:00.888Z,5.18
2023-04-27T11:22:28.416Z,5.75
2023-04-27T11:24:56.849Z,5.75
2023-04-27T11:27:34.204Z,5.28
2023-04-27T11:30:01.649Z,5.53
2023-04-27T11:32:30.917Z,5.47
2023-04-27T11:34:59.697Z,5.95
2023-04-27T11:37:28.361Z,5.60
2023-04-27T11:39:57.562Z,5.57
2023-04-27T11:42:28.632Z,5.70
2023-04-27T11:45:01.857Z,5.38
2023-04-27T11:47:31.126Z,5.90
2023-04-27T11:50:00.843Z,5.57
2023-04-27T11:52:32.065Z,5.63
2023-04-27T11:55:03.987Z,5.35
2023-04-27T11:57:32.939Z,6.20
2023-04-27T12:00:01.930Z,6.18
2023-04-27T12:02:31.454Z,6.30
2023-04-27T12:04:59.967Z,5.68
2023-04-27T12:07:27.579Z,6.28
2023-04-27T12:09:54.947Z,6.18
2023-04-27T12:12:22.851Z,5.78
2023-04-27T12:14:51.178Z,5.68
2023-04-27T12:17:19.340Z,6.70
2023-04-27T12:19:46.683Z,6.68
2023-04-27T12:22:17.372Z,6.15
2023-04-27T12:24:44.750Z,6.28
2023-04-27T12:27:12.790Z,7.18
2023-04-27T12:29:40.155Z,6.80
2023-04-27T12:32:07.762Z,7.25
2023-04-27T12:34:36.626Z,6.72
2023-04-27T12:37:04.019Z,6.95
2023-04-27T12:39:32.659Z,6.47
2023-04-27T12:42:00.031Z,6.40
2023-04-27T12:44:27.584Z,6.80
2023-04-27T12:46:55.208Z,7.07
2023-04-27T12:49:22.596Z,6.93
2023-04-27T12:51:53.876Z,6.85
2023-04-27T12:54:27.392Z,6.72
2023-04-27T12:56:57.550Z,7.50
2023-04-27T12:59:36.088Z,6.78
2023-04-27T13:02:04.322Z,7.25
2023-04-27T13:04:32.223Z,6.60
2023-04-27T13:07:03.392Z,7.55
2023-04-27T13:09:30.808Z,6.88
2023-04-27T13:12:01.548Z,6.38
2023-04-27T13:14:29.294Z,6.30
2023-04-27T13:16:56.801Z,6.50
2023-04-27T13:19:24.158Z,6.60
2023-04-27T13:21:51.543Z,6.57
2023-04-27T13:24:19.750Z,6.63
2023-04-27T13:26:47.244Z,6.90
2023-04-27T13:29:14.759Z,6.05
2023-04-27T13:31:42.292Z,6.68
2023-04-27T13:34:15.411Z,6.03
2023-04-27T13:39:47.322Z,6.72
2023-04-27T13:42:17.093Z,6.13
2023-04-27T13:44:48.866Z,6.85
2023-04-27T13:47:28.369Z,6.75
2023-04-27T13:50:08.131Z,6.97
2023-04-27T13:55:31.462Z,6.13
2023-04-27T13:57:59.281Z,6.47
2023-04-27T14:03:18.116Z,7.20
2023-04-27T14:05:53.945Z,6.93
2023-04-27T14:08:23.557Z,6.28
2023-04-27T14:10:51.025Z,6.97
2023-04-27T14:13:19.434Z,6.32
2023-04-27T14:15:47.003Z,7.25
2023-04-27T14:18:14.566Z,6.28
2023-04-27T14:20:48.635Z,6.40
2023-04-27T14:23:19.275Z,6.53
2023-04-27T14:25:49.550Z,6.03
2023-04-27T14:28:24.541Z,6.57
2023-04-27T14:30:54.476Z,6.65
2023-04-27T14:33:32.903Z,6.10
2023-04-27T14:38:47.228Z,6.40
2023-04-27T14:41:17.711Z,5.88
2023-04-27T14:46:34.259Z,6.72
2023-04-27T14:49:06.739Z,6.50
2023-04-27T14:51:34.100Z,6.45
2023-04-27T14:54:02.400Z,6.15
2023-04-27T14:56:29.974Z,6.00
2023-04-27T14:58:57.694Z,6.00
2023-04-27T15:01:25.118Z,6.30
2023-04-27T15:03:54.567Z,7.32
2023-04-27T15:06:25.913Z,6.40
2023-04-27T15:08:59.103Z,6.90
2023-04-27T15:11:27.449Z,6.90
2023-04-27T15:13:57.220Z,6.68
2023-04-27T15:16:26.337Z,6.35
2023-04-27T15:19:01.555Z,7.10
2023-04-27T15:21:29.563Z,6.85
2023-04-27T15:23:57.017Z,6.63
2023-04-27T15:26:25.444Z,6.25
2023-04-27T15:28:53.613Z,6.47
2023-04-27T15:31:21.349Z,6.70
2023-04-27T15:33:48.804Z,6.53
2023-04-27T15:36:17.505Z,6.40
2023-04-27T15:38:44.925Z,6.28
2023-04-27T15:41:12.243Z,6.38
2023-04-27T15:43:39.601Z,6.15
2023-04-27T15:46:07.152Z,6.47
2023-04-27T15:48:34.525Z,6.80
2023-04-27T15:51:02.789Z,6.45
2023-04-27T15:53:30.508Z,6.40
2023-04-27T15:55:57.844Z,6.70
2023-04-27T15:58:25.192Z,6.43
2023-04-27T16:00:52.536Z,7.00
2023-04-27T16:03:22.866Z,7.13
2023-04-27T16:05:52.400Z,6.55
2023-04-27T16:08:22.411Z,6.88
2023-04-27T16:10:50.507Z,6.22
2023-04-27T16:13:17.840Z,5.95
2023-04-27T16:15:47.385Z,6.15
2023-04-27T16:18:14.845Z,6.13
2023-04-27T16:20:44.856Z,6.15
2023-04-27T16:23:21.213Z,6.18
2023-04-27T16:25:48.651Z,6.50
2023-04-27T16:28:18.071Z,6.10
2023-04-27T16:30:45.580Z,6.20
2023-04-27T16:33:13.100Z,6.40
2023-04-27T16:35:43.045Z,5.80
2023-04-27T16:38:10.479Z,6.28
2023-04-27T16:40:37.945Z,6.13
2023-04-27T16:43:05.416Z,6.35
2023-04-27T16:45:35.986Z,6.65
2023-04-27T16:48:03.689Z,6.40
2023-04-27T16:50:34.569Z,6.65
2023-04-27T16:53:13.772Z,6.63
2023-04-27T16:55:41.747Z,6.10
2023-04-27T16:58:09.482Z,5.57
2023-04-27T17:00:39.377Z,5.72
2023-04-27T17:03:07.098Z,6.07
2023-04-27T17:05:37.515Z,6.30
2023-04-27T17:08:06.179Z,6.25
2023-04-27T17:10:33.650Z,6.47
2023-04-27T17:13:01.082Z,6.75
2023-04-27T17:15:28.830Z,6.80
2023-04-27T17:17:56.528Z,6.78
2023-04-27T17:20:24.283Z,7.30
2023-04-27T17:22:57.225Z,10.23
2023-04-27T17:27:52.758Z,8.52
2023-04-27T17:30:20.404Z,6.28
2023-04-27T17:32:47.792Z,6.45
2023-04-27T17:35:15.286Z,6.80
2023-04-27T17:37:42.846Z,6.63
2023-04-27T17:40:11.076Z,7.05
2023-04-27T17:42:38.765Z,6.85
2023-04-27T17:45:06.734Z,6.40
2023-04-27T17:47:34.436Z,7.22
2023-04-27T17:50:01.849Z,6.85
2023-04-27T17:52:29.325Z,7.18
2023-04-27T17:54:56.949Z,6.55
2023-04-27T17:57:24.437Z,6.95
2023-04-27T17:59:52.586Z,6.35
2023-04-27T18:02:20.181Z,6.22
2023-04-27T18:04:47.556Z,6.65
2023-04-27T18:07:14.971Z,6.65
2023-04-27T18:09:42.315Z,6.50
2023-04-27T18:12:11.241Z,6.68
2023-04-27T18:14:39.083Z,7.00
2023-04-27T18:17:06.545Z,7.38
2023-04-27T18:19:34.012Z,7.00
2023-04-27T18:22:04.516Z,7.32
2023-04-27T18:24:32.095Z,7.00
2023-04-27T18:27:00.055Z,6.53
2023-04-27T18:29:27.923Z,6.60
2023-04-27T18:31:57.001Z,6.75
2023-04-27T18:34:24.373Z,7.45
2023-04-27T18:36:52.178Z,7.00
2023-04-27T18:39:20.472Z,6.78
2023-04-27T18:41:48.270Z,7.65
2023-04-27T18:44:16.781Z,7.25
2023-04-27T18:46:45.622Z,7.35
2023-04-27T18:49:13.542Z,7.28
2023-04-27T18:51:41.244Z,7.45
2023-04-27T18:54:08.805Z,7.70
2023-04-27T18:56:36.510Z,7.10
2023-04-27T18:59:04.017Z,7.28
2023-04-27T19:01:31.953Z,7.05
2023-04-27T19:03:59.733Z,7.40
2023-04-27T19:06:27.658Z,7.32
2023-04-27T19:08:55.753Z,7.70
2023-04-27T19:11:24.986Z,7.10
2023-04-27T19:13:52.352Z,8.18
2023-04-27T19:16:19.786Z,7.78
2023-04-27T19:18:47.205Z,7.75
2023-04-27T19:21:14.624Z,7.88
2023-04-27T19:23:42.032Z,7.95
2023-04-27T19:26:12.914Z,8.52
2023-04-27T19:28:41.053Z,8.18
2023-04-27T19:31:08.562Z,8.20
2023-04-27T19:33:36.061Z,8.20
2023-04-27T19:36:03.555Z,8.55
2023-04-27T19:38:31.042Z,8.57
2023-04-27T19:41:00.174Z,8.25
2023-04-27T19:43:29.047Z,8.65
2023-04-27T19:45:56.494Z,9.07
2023-04-27T19:48:23.857Z,8.98
2023-04-27T19:50:51.340Z,9.10
2023-04-27T19:53:18.755Z,8.07
2023-04-27T19:55:46.631Z,8.60
2023-04-27T19:58:14.101Z,8.27
2023-04-27T20:00:41.781Z,8.23
2023-04-27T20:03:09.352Z,8.30
2023-04-27T20:05:37.643Z,8.63
2023-04-27T20:08:05.202Z,8.85
2023-04-27T20:10:33.012Z,8.45
2023-04-27T20:13:00.532Z,8.30
2023-04-27T20:15:27.866Z,9.02
2023-04-27T20:17:55.287Z,8.02
2023-04-27T20:20:22.716Z,8.65
2023-04-27T20:22:50.125Z,9.27
2023-04-27T20:25:19.631Z,8.57
2023-04-27T20:27:48.157Z,9.00
2023-04-27T20:30:16.004Z,8.55
2023-04-27T20:32:44.397Z,8.85
2023-04-27T20:35:11.833Z,8.75
2023-04-27T20:37:41.918Z,8.73
2023-04-27T20:40:14.238Z,9.02
2023-04-27T20:42:42.599Z,8.98
2023-04-27T20:45:11.575Z,8.40
2023-04-27T20:47:39.085Z,9.02
2023-04-27T20:50:07.945Z,8.77
2023-04-27T20:52:35.902Z,9.05
2023-04-27T20:55:04.566Z,9.18
2023-04-27T20:57:32.412Z,9.25
2023-04-27T20:59:59.900Z,8.85
2023-04-27T21:02:27.308Z,9.40
2023-04-27T21:04:54.751Z,9.45
2023-04-27T21:07:22.304Z,10.00
2023-04-27T21:09:49.702Z,9.75
2023-04-27T21:12:17.815Z,9.63
2023-04-27T21:14:48.525Z,9.73
2023-04-27T21:17:15.838Z,9.98
2023-04-27T21:19:43.174Z,9.35
2023-04-27T21:22:10.639Z,8.90
2023-04-27T21:24:38.006Z,9.13
2023-04-27T21:27:05.800Z,7.75
2023-04-27T21:29:38.607Z,7.80
2023-04-27T21:32:07.248Z,9.07
2023-04-27T21:34:34.794Z,7.97
2023-04-27T21:37:02.128Z,8.32
2023-04-27T21:39:29.491Z,8.90
2023-04-27T21:41:56.901Z,8.70
2023-04-27T21:44:24.250Z,8.07
2023-04-27T21:46:51.866Z,7.90
2023-04-27T21:49:19.270Z,8.13
2023-04-27T21:51:46.565Z,7.72
2023-04-27T21:54:14.110Z,7.53
2023-04-27T21:56:41.843Z,7.90
2023-04-27T21:59:09.236Z,7.28
2023-04-27T22:01:37.880Z,7.40
2023-04-27T22:04:06.949Z,7.22
2023-04-27T22:06:34.369Z,7.93
2023-04-27T22:09:01.823Z,7.30
2023-04-27T22:11:29.203Z,7.78
2023-04-27T22:13:56.716Z,7.78
2023-04-27T22:16:24.251Z,7.80
2023-04-27T22:18:52.163Z,7.82
2023-04-27T22:21:19.513Z,7.90
2023-04-27T22:23:48.165Z,8.18
2023-04-27T22:26:15.560Z,8.05
2023-04-27T22:28:42.976Z,7.90
2023-04-27T22:31:10.369Z,8.07
2023-04-27T22:33:37.886Z,7.88
2023-04-27T22:36:05.896Z,7.88
2023-04-27T22:38:33.324Z,8.45
2023-04-27T22:41:00.711Z,7.70
2023-04-27T22:43:28.261Z,7.65
2023-04-27T22:45:55.794Z,7.60
2023-04-27T22:48:23.191Z,7.28
2023-04-27T22:50:50.817Z,7.63
2023-04-27T22:53:18.231Z,7.22
2023-04-27T22:55:45.561Z,7.15
2023-04-27T22:58:12.921Z,7.97
2023-04-27T23:00:40.441Z,7.13
2023-04-27T23:03:08.023Z,7.65
2023-04-27T23:05:35.570Z,7.10
2023-04-27T23:08:03.248Z,7.85
2023-04-27T23:10:31.222Z,7.90
2023-04-27T23:13:01.411Z,7.75
2023-04-27T23:15:29.255Z,7.15
2023-04-27T23:17:56.693Z,7.60
2023-04-27T23:20:28.720Z,7.93
2023-04-27T23:22:56.884Z,6.90
2023-04-27T23:25:24.556Z,7.68
2023-04-27T23:27:52.868Z,7.80
2023-04-27T23:30:21.865Z,7.28
2023-04-27T23:32:49.321Z,7.53
2023-04-27T23:35:16.817Z,7.82
2023-04-27T23:37:44.410Z,7.95
2023-04-27T23:40:12.305Z,7.80
2023-04-27T23:42:39.713Z,8.18
2023-04-27T23:45:07.702Z,7.68
2023-04-27T23:47:35.074Z,8.10
2023-04-27T23:50:03.109Z,8.35
2023-04-27T23:52:30.550Z,8.40
2023-04-27T23:55:01.092Z,8.10
2023-04-27T23:57:28.468Z,8.60
2023-04-27T23:59:57.213Z,8.98
